(°C)
15°
14°
14°
14°
14°
13°
13°
(°C)
16°
15°
15°
15°
14°
14°
13°
J
J
J
JJV
JV
JV
JV
(km/h)
2-5
2-6
2-6
2-6
1-6
2-6
2-7
(mm)
0
0
0
0
0
0
0
(%)
2
2
2
1
1
4
7

Sluneční výška

/ -54.1°
sun-icon
UV 4
06:49
17:07
Dorůstající měsíc (163°)
16:01
06:06

METAR pro San Diego (KSAN)

Čas Podmínky Teplota/
Rosný bod
Vítr Viditelnost Počasí Oblaky Tlak Změna Nezpracované
VFR 15°C / 13.9°C 140º 4kt >10km - Scattered Clouds 4100ft
Scattered Clouds 6000ft
Broken Clouds 22000ft
1018 - KSAN 170451Z 14004KT 10SM SCT041 SCT060 BKN220 15/14 A3008 RMK AO2 SLP184 T01500139
VFR 15.6°C / 13.3°C 170º 3kt >10km - Scattered Clouds 6000ft
Broken Clouds 22000ft
1018 - KSAN 170351Z 17003KT 10SM SCT060 BKN220 16/13 A3007 RMK AO2 SLP183 T01560133
VFR 15.6°C / 13.9°C 170º 4kt >10km - Few Clouds 6500ft
Overcast 23000ft
1018 - KSAN 170251Z 17004KT 10SM FEW065 OVC230 16/14 A3007 RMK AO2 SLP182 T01560139 51008
VFR 15.6°C / 13.9°C 160º 5kt >10km - Few Clouds 6500ft
Broken Clouds 23000ft
1017 - KSAN 170151Z COR 16005KT 10SM FEW065 BKN230 16/14 A3006 RMK AO2 SLP179 T01560139
VFR 16.1°C / 13.9°C variable 5kt >10km - Few Clouds 500ft
Scattered Clouds 6000ft
Broken Clouds 23000ft
- KSAN 170056Z VRB05KT 10SM FEW005 SCT060 BKN230 16/14 A3006 RMK AO2 FU FEW005 T01610139
VFR 16.1°C / 13.9°C 160º 4kt >10km - Scattered Clouds 6000ft
Broken Clouds 23000ft
1017 - KSAN 170051Z 16004KT 10SM SCT060 BKN230 16/14 A3006 RMK AO2 SLP179 T01610139
VFR 16.7°C / 13.9°C 180º 5kt >10km - Few Clouds 6000ft
Broken Clouds 25000ft
1017 - KSAN 162351Z 18005KT 10SM FEW060 BKN250 17/14 A3005 RMK AO2 SLP174 T01670139 10194 20167 57007
VFR 17.2°C / 13.9°C 210º 5kt >10km - Few Clouds 6000ft
Broken Clouds 25000ft
1017 - KSAN 162251Z 21005KT 10SM FEW060 BKN250 17/14 A3005 RMK AO2 SLP176 T01720139
VFR 17.2°C / 12.8°C 190º 5kt >10km - Few Clouds 6000ft
Broken Clouds 25000ft
1018 - KSAN 162151Z 19005KT 10SM FEW060 BKN250 17/13 A3006 RMK AO2 SLP180 T01720128
VFR 17.2°C / 13.3°C 200º 6kt >10km - Few Clouds 6000ft
Broken Clouds 25000ft
1018 - KSAN 162051Z 20006KT 10SM FEW060 BKN250 17/13 A3007 RMK AO2 SLP181 T01720133 58014
VFR 18.3°C / 10.6°C variable 5kt >10km - Few Clouds 6000ft
Broken Clouds 25000ft
1018 - KSAN 161951Z VRB05KT 10SM FEW060 BKN250 18/11 A3008 RMK AO2 SLP186 T01830106
VFR 18.9°C / 7.8°C variable 0kt >10km - Few Clouds 6000ft
Broken Clouds 25000ft
1019 - KSAN 161851Z 00000KT 10SM FEW060 BKN250 19/08 A3010 RMK AO2 SLP192 T01890078
VFR 17.2°C / 12.2°C 200º 4kt >10km - Few Clouds 6000ft
Broken Clouds 25000ft
1019 - KSAN 161751Z 20004KT 10SM FEW060 BKN250 17/12 A3011 RMK AO2 SLP195 T01720122 10172 20128 53008
VFR 16.7°C / 11.1°C 130º 3kt >10km - Few Clouds 6000ft
Broken Clouds 25000ft
1019 - KSAN 161651Z 13003KT 10SM FEW060 BKN250 17/11 A3010 RMK AO2 SLP192 T01670111
VFR 13.9°C / 7.2°C variable 0kt >10km - Few Clouds 6000ft
Broken Clouds 25000ft
1018 - KSAN 161551Z 00000KT 10SM FEW060 BKN250 14/07 A3009 RMK AO2 SLP189 T01390072
VFR 14.4°C / 9.4°C variable 0kt >10km - Few Clouds 8000ft
Scattered Clouds 20000ft
1018 - KSAN 161451Z 00000KT 10SM FEW080 SCT200 14/09 A3009 RMK AO2 SLP187 T01440094 53007
VFR 13.3°C / 8.9°C 40º 3kt >10km - Scattered Clouds 8000ft 1018 - KSAN 161351Z 04003KT 10SM SCT080 13/09 A3007 RMK AO2 SLP183 T01330089
VFR 15°C / 8.9°C variable 0kt >10km - Scattered Clouds 7000ft 1018 - KSAN 161251Z 00000KT 10SM SCT070 15/09 A3007 RMK AO2 SLP181 T01500089
VFR 15°C / 7.8°C variable 0kt >10km - Scattered Clouds 7500ft
Broken Clouds 9000ft
1018 - KSAN 161151Z 00000KT 10SM SCT075 BKN090 15/08 A3006 RMK AO2 SLP180 70003 T01500078 10183 20150 58000
VFR 15.6°C / 7.2°C variable 0kt >10km - Broken Clouds 7500ft
Broken Clouds 9000ft
1018 - KSAN 161051Z 00000KT 10SM BKN075 BKN090 16/07 A3008 RMK AO2 SLP187 T01560072
VFR 16.1°C / 6.7°C variable 0kt >10km - Broken Clouds 7500ft
Broken Clouds 9000ft
1019 - KSAN 160951Z 00000KT 10SM BKN075 BKN090 16/07 A3010 RMK AO2 SLP191 T01610067
VFR 16.1°C / 8.9°C variable 0kt >10km - Broken Clouds 5500ft
Broken Clouds 9000ft
1018 - KSAN 160851Z 00000KT 10SM BKN055 BKN090 16/09 A3006 RMK AO2 SLP180 T01610089 58017
VFR 16.7°C / 7.8°C variable 0kt >10km - Broken Clouds 5500ft
Broken Clouds 9000ft
1019 - KSAN 160751Z 00000KT 10SM BKN055 BKN090 17/08 A3010 RMK AO2 SLP191 T01670078 402110111
VFR 17.2°C / 6.7°C 10º 4kt >10km - Broken Clouds 5500ft 1019 - KSAN 160651Z 01004KT 10SM BKN055 17/07 A3012 RMK AO2 SLP197 T01720067

VFR

15°C / 13.9°C

[Víc]
Vítr 140º 4kt
Viditelnost >10km
Počasí -
Oblaky Scattered Clouds 4100ft
Scattered Clouds 6000ft
Broken Clouds 22000ft
Tlak 1018
Změna -
Nezpracované KSAN 170451Z 14004KT 10SM SCT041 SCT060 BKN220 15/14 A3008 RMK AO2 SLP184 T01500139

VFR

15.6°C / 13.3°C

[Víc]
Vítr 170º 3kt
Viditelnost >10km
Počasí -
Oblaky Scattered Clouds 6000ft
Broken Clouds 22000ft
Tlak 1018
Změna -
Nezpracované KSAN 170351Z 17003KT 10SM SCT060 BKN220 16/13 A3007 RMK AO2 SLP183 T01560133

VFR

15.6°C / 13.9°C

[Víc]
Vítr 170º 4kt
Viditelnost >10km
Počasí -
Oblaky Few Clouds 6500ft
Overcast 23000ft
Tlak 1018
Změna -
Nezpracované KSAN 170251Z 17004KT 10SM FEW065 OVC230 16/14 A3007 RMK AO2 SLP182 T01560139 51008

VFR

15.6°C / 13.9°C

[Víc]
Vítr 160º 5kt
Viditelnost >10km
Počasí -
Oblaky Few Clouds 6500ft
Broken Clouds 23000ft
Tlak 1017
Změna -
Nezpracované KSAN 170151Z COR 16005KT 10SM FEW065 BKN230 16/14 A3006 RMK AO2 SLP179 T01560139

VFR

16.1°C / 13.9°C

[Víc]
Vítr variable 5kt
Viditelnost >10km
Počasí -
Oblaky Few Clouds 500ft
Scattered Clouds 6000ft
Broken Clouds 23000ft
Tlak
Změna -
Nezpracované KSAN 170056Z VRB05KT 10SM FEW005 SCT060 BKN230 16/14 A3006 RMK AO2 FU FEW005 T01610139

VFR

16.1°C / 13.9°C

[Víc]
Vítr 160º 4kt
Viditelnost >10km
Počasí -
Oblaky Scattered Clouds 6000ft
Broken Clouds 23000ft
Tlak 1017
Změna -
Nezpracované KSAN 170051Z 16004KT 10SM SCT060 BKN230 16/14 A3006 RMK AO2 SLP179 T01610139

VFR

16.7°C / 13.9°C

[Víc]
Vítr 180º 5kt
Viditelnost >10km
Počasí -
Oblaky Few Clouds 6000ft
Broken Clouds 25000ft
Tlak 1017
Změna -
Nezpracované KSAN 162351Z 18005KT 10SM FEW060 BKN250 17/14 A3005 RMK AO2 SLP174 T01670139 10194 20167 57007

VFR

17.2°C / 13.9°C

[Víc]
Vítr 210º 5kt
Viditelnost >10km
Počasí -
Oblaky Few Clouds 6000ft
Broken Clouds 25000ft
Tlak 1017
Změna -
Nezpracované KSAN 162251Z 21005KT 10SM FEW060 BKN250 17/14 A3005 RMK AO2 SLP176 T01720139

VFR

17.2°C / 12.8°C

[Víc]
Vítr 190º 5kt
Viditelnost >10km
Počasí -
Oblaky Few Clouds 6000ft
Broken Clouds 25000ft
Tlak 1018
Změna -
Nezpracované KSAN 162151Z 19005KT 10SM FEW060 BKN250 17/13 A3006 RMK AO2 SLP180 T01720128

VFR

17.2°C / 13.3°C

[Víc]
Vítr 200º 6kt
Viditelnost >10km
Počasí -
Oblaky Few Clouds 6000ft
Broken Clouds 25000ft
Tlak 1018
Změna -
Nezpracované KSAN 162051Z 20006KT 10SM FEW060 BKN250 17/13 A3007 RMK AO2 SLP181 T01720133 58014

VFR

18.3°C / 10.6°C

[Víc]
Vítr variable 5kt
Viditelnost >10km
Počasí -
Oblaky Few Clouds 6000ft
Broken Clouds 25000ft
Tlak 1018
Změna -
Nezpracované KSAN 161951Z VRB05KT 10SM FEW060 BKN250 18/11 A3008 RMK AO2 SLP186 T01830106

VFR

18.9°C / 7.8°C

[Víc]
Vítr variable 0kt
Viditelnost >10km
Počasí -
Oblaky Few Clouds 6000ft
Broken Clouds 25000ft
Tlak 1019
Změna -
Nezpracované KSAN 161851Z 00000KT 10SM FEW060 BKN250 19/08 A3010 RMK AO2 SLP192 T01890078

VFR

17.2°C / 12.2°C

[Víc]
Vítr 200º 4kt
Viditelnost >10km
Počasí -
Oblaky Few Clouds 6000ft
Broken Clouds 25000ft
Tlak 1019
Změna -
Nezpracované KSAN 161751Z 20004KT 10SM FEW060 BKN250 17/12 A3011 RMK AO2 SLP195 T01720122 10172 20128 53008

VFR

16.7°C / 11.1°C

[Víc]
Vítr 130º 3kt
Viditelnost >10km
Počasí -
Oblaky Few Clouds 6000ft
Broken Clouds 25000ft
Tlak 1019
Změna -
Nezpracované KSAN 161651Z 13003KT 10SM FEW060 BKN250 17/11 A3010 RMK AO2 SLP192 T01670111

VFR

13.9°C / 7.2°C

[Víc]
Vítr variable 0kt
Viditelnost >10km
Počasí -
Oblaky Few Clouds 6000ft
Broken Clouds 25000ft
Tlak 1018
Změna -
Nezpracované KSAN 161551Z 00000KT 10SM FEW060 BKN250 14/07 A3009 RMK AO2 SLP189 T01390072

VFR

14.4°C / 9.4°C

[Víc]
Vítr variable 0kt
Viditelnost >10km
Počasí -
Oblaky Few Clouds 8000ft
Scattered Clouds 20000ft
Tlak 1018
Změna -
Nezpracované KSAN 161451Z 00000KT 10SM FEW080 SCT200 14/09 A3009 RMK AO2 SLP187 T01440094 53007

VFR

13.3°C / 8.9°C

[Víc]
Vítr 40º 3kt
Viditelnost >10km
Počasí -
Oblaky Scattered Clouds 8000ft
Tlak 1018
Změna -
Nezpracované KSAN 161351Z 04003KT 10SM SCT080 13/09 A3007 RMK AO2 SLP183 T01330089

VFR

15°C / 8.9°C

[Víc]
Vítr variable 0kt
Viditelnost >10km
Počasí -
Oblaky Scattered Clouds 7000ft
Tlak 1018
Změna -
Nezpracované KSAN 161251Z 00000KT 10SM SCT070 15/09 A3007 RMK AO2 SLP181 T01500089

VFR

15°C / 7.8°C

[Víc]
Vítr variable 0kt
Viditelnost >10km
Počasí -
Oblaky Scattered Clouds 7500ft
Broken Clouds 9000ft
Tlak 1018
Změna -
Nezpracované KSAN 161151Z 00000KT 10SM SCT075 BKN090 15/08 A3006 RMK AO2 SLP180 70003 T01500078 10183 20150 58000

VFR

15.6°C / 7.2°C

[Víc]
Vítr variable 0kt
Viditelnost >10km
Počasí -
Oblaky Broken Clouds 7500ft
Broken Clouds 9000ft
Tlak 1018
Změna -
Nezpracované KSAN 161051Z 00000KT 10SM BKN075 BKN090 16/07 A3008 RMK AO2 SLP187 T01560072

VFR

16.1°C / 6.7°C

[Víc]
Vítr variable 0kt
Viditelnost >10km
Počasí -
Oblaky Broken Clouds 7500ft
Broken Clouds 9000ft
Tlak 1019
Změna -
Nezpracované KSAN 160951Z 00000KT 10SM BKN075 BKN090 16/07 A3010 RMK AO2 SLP191 T01610067

VFR

16.1°C / 8.9°C

[Víc]
Vítr variable 0kt
Viditelnost >10km
Počasí -
Oblaky Broken Clouds 5500ft
Broken Clouds 9000ft
Tlak 1018
Změna -
Nezpracované KSAN 160851Z 00000KT 10SM BKN055 BKN090 16/09 A3006 RMK AO2 SLP180 T01610089 58017

VFR

16.7°C / 7.8°C

[Víc]
Vítr variable 0kt
Viditelnost >10km
Počasí -
Oblaky Broken Clouds 5500ft
Broken Clouds 9000ft
Tlak 1019
Změna -
Nezpracované KSAN 160751Z 00000KT 10SM BKN055 BKN090 17/08 A3010 RMK AO2 SLP191 T01670078 402110111

VFR

17.2°C / 6.7°C

[Víc]
Vítr 10º 4kt
Viditelnost >10km
Počasí -
Oblaky Broken Clouds 5500ft
Tlak 1019
Změna -
Nezpracované KSAN 160651Z 01004KT 10SM BKN055 17/07 A3012 RMK AO2 SLP197 T01720067

TAF pro San Diego (KSAN)

From till


From till Wind variable 4kt. Visibility 10km or more. Scattered Clouds 5000ft. Scattered Clouds 25000ft.
From till Wind variable 4kt. Visibility 10km or more. Broken Clouds 1500ft. Overcast 5000ft.
From till Wind 260º 7kt. Visibility 10km or more. Scattered Clouds 1500ft. Broken Clouds 5000ft.

Nezpracované: KSAN 170254Z 1703/1806 VRB04KT P6SM SCT050 SCT250 FM170900 VRB04KT P6SM BKN015 OVC050 FM171900 26007KT P6SM SCT015 BKN050

Radar a krátkodobá předpověď srážek pro San Diego

Mrholení
Slabé
Střední
Silné
Velmi silné
Kroupy

Značka lokality je umístněna na San Diego. Tato animace ukazuje srážky zaznamenané radarem za poslední hodinu a také 1h předpověď. Mrholení nebo slabé sněžení může být pro radar neviditelné. Intenzita srážek je barevně označena od světle modré po oranžovou.

Aktuální snímky ze satelitu pro San Diego, Spojené státy americké

Značka polohy je umístěna na San Diego. [Víc]

Satelitní snímek v reálném čase kombinuje viditelné světlo během dne s infračerveným zářením během noci. V noci není obraz tmavý, protože infračervené záření dokáže detekovat teplotní rozdíly. Nízká oblačnost a mlha se bohužel těžko odlišují od pozemních teplot, a proto mohou být během noci téměř neviditelné. Satelitní snímky z Meteosatu pro Evropu jsou aktualizovány v reálném čase každých 5 minut. Snímky z GOES-16/GOES-17 (Severní a Jižní Amerika) a Himawari (Asie) jsou aktualizovány) každých 10 minut.